createdAt,value
2019-01-12T00:01:50.405Z,3.70
2019-01-12T00:04:18.908Z,3.60
2019-01-12T00:06:47.485Z,3.60
2019-01-12T00:09:16.007Z,3.50
2019-01-12T00:11:44.457Z,3.60
2019-01-12T00:14:12.933Z,3.60
2019-01-12T00:16:41.382Z,3.60
2019-01-12T00:19:09.830Z,3.50
2019-01-12T00:21:38.962Z,3.50
2019-01-12T00:24:07.418Z,3.50
2019-01-12T00:26:35.868Z,3.50
2019-01-12T00:29:04.761Z,3.60
2019-01-12T00:31:33.201Z,3.60
2019-01-12T00:34:01.649Z,3.60
2019-01-12T00:36:30.125Z,3.60
2019-01-12T00:38:58.568Z,3.60
2019-01-12T00:41:27.162Z,3.60
2019-01-12T00:43:55.709Z,3.60
2019-01-12T00:46:24.369Z,3.60
2019-01-12T00:48:52.893Z,3.60
2019-01-12T00:51:21.374Z,3.60
2019-01-12T00:53:49.817Z,3.60
2019-01-12T00:56:18.406Z,3.60
2019-01-12T00:58:46.962Z,3.60
2019-01-12T01:01:15.553Z,3.60
2019-01-12T01:03:44.073Z,3.70
2019-01-12T01:06:12.618Z,3.60
2019-01-12T01:08:41.073Z,3.60
2019-01-12T01:11:09.657Z,3.60
2019-01-12T01:13:38.218Z,3.60
2019-01-12T01:16:06.802Z,3.60
2019-01-12T01:18:35.397Z,3.60
2019-01-12T01:21:04.058Z,3.60
2019-01-12T01:23:32.586Z,3.60
2019-01-12T01:26:01.111Z,3.60
2019-01-12T01:28:29.722Z,3.60
2019-01-12T01:30:58.179Z,3.50
2019-01-12T01:33:28.104Z,3.50
2019-01-12T01:35:56.917Z,3.50
2019-01-12T01:38:25.600Z,3.50
2019-01-12T01:40:54.056Z,3.50
2019-01-12T01:43:22.661Z,3.60
2019-01-12T01:45:51.189Z,3.50
2019-01-12T01:48:19.781Z,3.50
2019-01-12T01:50:48.277Z,3.50
2019-01-12T01:53:16.801Z,3.50
2019-01-12T01:55:45.252Z,3.50
2019-01-12T01:58:13.726Z,3.50
2019-01-12T02:00:42.309Z,3.50
2019-01-12T02:03:10.821Z,3.50
2019-01-12T02:05:39.370Z,3.50
2019-01-12T02:08:08.056Z,3.50
2019-01-12T02:10:36.569Z,3.40
2019-01-12T02:13:05.125Z,3.50
2019-01-12T02:15:33.637Z,3.50
2019-01-12T02:18:02.085Z,3.40
2019-01-12T02:20:30.562Z,3.40
2019-01-12T02:22:59.017Z,3.40
2019-01-12T02:25:31.273Z,3.40
2019-01-12T02:27:59.756Z,3.40
2019-01-12T02:30:28.346Z,3.30
2019-01-12T02:32:56.941Z,3.30
2019-01-12T02:35:25.570Z,3.30
2019-01-12T02:37:54.089Z,3.30
2019-01-12T02:40:22.612Z,3.20
2019-01-12T02:42:51.170Z,3.30
2019-01-12T02:45:19.762Z,3.20
2019-01-12T02:47:48.285Z,3.20
2019-01-12T02:50:16.858Z,3.20
2019-01-12T02:52:45.450Z,3.20
2019-01-12T02:55:14.046Z,3.20
2019-01-12T02:57:42.675Z,3.10
2019-01-12T03:00:16.385Z,3.10
2019-01-12T03:02:44.979Z,3.10
2019-01-12T03:05:14.505Z,3.10
2019-01-12T03:07:43.147Z,3.00
2019-01-12T03:10:13.957Z,3.00
2019-01-12T03:12:42.577Z,3.10
2019-01-12T03:15:16.512Z,3.10
2019-01-12T03:17:45.101Z,3.10
2019-01-12T03:20:15.411Z,3.10
2019-01-12T03:22:43.999Z,3.10
2019-01-12T03:25:17.892Z,3.10
2019-01-12T03:27:42.861Z,3.10
2019-01-12T03:30:14.581Z,3.20
2019-01-12T03:32:43.199Z,3.20
2019-01-12T03:35:11.812Z,3.10
2019-01-12T03:37:40.477Z,3.10
2019-01-12T03:40:12.564Z,3.00
2019-01-12T03:42:41.310Z,3.00
2019-01-12T03:45:12.777Z,3.00
2019-01-12T03:47:41.361Z,3.00
2019-01-12T03:50:11.974Z,3.00
2019-01-12T03:52:40.565Z,3.00
2019-01-12T03:55:09.450Z,3.00
2019-01-12T03:57:38.006Z,3.00
2019-01-12T04:00:12.151Z,3.00
2019-01-12T04:02:40.853Z,3.00
2019-01-12T04:05:09.490Z,3.00
2019-01-12T04:07:38.017Z,3.00
2019-01-12T04:10:10.106Z,2.90
2019-01-12T04:12:38.733Z,2.90
2019-01-12T04:15:10.062Z,2.90
2019-01-12T04:17:38.577Z,2.80
2019-01-12T04:20:10.477Z,2.70
2019-01-12T04:22:38.997Z,2.80
2019-01-12T04:25:07.582Z,2.80
2019-01-12T04:27:36.130Z,2.80
2019-01-12T04:30:08.121Z,2.70
2019-01-12T04:32:36.570Z,2.60
2019-01-12T04:35:07.091Z,2.70
2019-01-12T04:37:35.606Z,2.70
2019-01-12T04:40:10.373Z,2.70
2019-01-12T04:42:38.917Z,2.70
2019-01-12T04:45:09.201Z,2.70
2019-01-12T04:47:37.648Z,2.70
2019-01-12T04:50:09.193Z,2.60
2019-01-12T04:52:37.640Z,2.70
2019-01-12T04:55:06.934Z,2.70
2019-01-12T04:57:35.557Z,2.70
2019-01-12T05:00:07.478Z,2.70
2019-01-12T05:02:35.999Z,2.70
2019-01-12T05:05:05.424Z,2.70
2019-01-12T05:07:33.941Z,2.60
2019-01-12T05:10:02.469Z,2.60
2019-01-12T05:12:31.013Z,2.70
2019-01-12T05:14:59.467Z,2.70
2019-01-12T05:17:27.995Z,2.80
2019-01-12T05:19:56.473Z,2.80
2019-01-12T05:22:24.919Z,2.80
2019-01-12T05:24:53.366Z,2.80
2019-01-12T05:27:21.839Z,2.90
2019-01-12T05:29:50.361Z,3.00
2019-01-12T05:32:30.800Z,3.00
2019-01-12T05:34:59.449Z,2.90
2019-01-12T05:37:27.898Z,2.90
2019-01-12T05:39:56.433Z,3.00
2019-01-12T05:42:24.881Z,3.00
2019-01-12T05:44:53.330Z,3.00
2019-01-12T05:47:21.825Z,3.00
2019-01-12T05:49:50.270Z,3.00
2019-01-12T05:52:18.712Z,3.10
2019-01-12T05:54:47.286Z,3.10
2019-01-12T05:57:15.738Z,3.10
2019-01-12T05:59:44.183Z,3.00
2019-01-12T06:02:12.794Z,3.00
2019-01-12T06:04:41.280Z,3.00
2019-01-12T06:07:09.730Z,3.00
2019-01-12T06:09:38.285Z,3.00
2019-01-12T06:12:06.796Z,3.00
2019-01-12T06:14:35.237Z,3.00
2019-01-12T06:17:03.805Z,3.00
2019-01-12T06:19:32.329Z,2.90
2019-01-12T06:22:00.841Z,3.00
2019-01-12T06:24:29.469Z,3.00
2019-01-12T06:26:57.916Z,3.00
2019-01-12T06:29:26.357Z,3.00
2019-01-12T06:31:54.906Z,3.00
2019-01-12T06:34:23.645Z,3.00
2019-01-12T06:36:52.095Z,2.90
2019-01-12T06:39:20.709Z,2.90
2019-01-12T06:41:49.155Z,2.90
2019-01-12T06:44:17.598Z,2.90
2019-01-12T06:46:46.074Z,3.00
2019-01-12T06:49:14.589Z,2.90
2019-01-12T06:51:43.114Z,3.00
2019-01-12T06:54:11.653Z,2.90
2019-01-12T06:56:40.106Z,3.00
2019-01-12T06:59:08.763Z,2.90
2019-01-12T07:01:37.236Z,2.90
2019-01-12T07:04:05.760Z,2.80
2019-01-12T07:06:34.275Z,2.90
2019-01-12T07:09:04.605Z,2.80
2019-01-12T07:11:33.049Z,2.90
2019-01-12T07:14:01.569Z,2.90
2019-01-12T07:16:30.107Z,2.90
2019-01-12T07:18:58.550Z,2.90
2019-01-12T07:21:26.997Z,2.90
2019-01-12T07:23:55.486Z,2.80
2019-01-12T07:26:23.933Z,2.90
2019-01-12T07:28:52.392Z,2.80
2019-01-12T07:31:20.945Z,2.80
2019-01-12T07:33:49.400Z,2.80
2019-01-12T07:36:18.692Z,2.80
2019-01-12T07:38:47.165Z,2.80
2019-01-12T07:41:15.618Z,2.80
2019-01-12T07:43:44.072Z,2.80
2019-01-12T07:46:12.556Z,2.90
2019-01-12T07:48:41.145Z,2.90
2019-01-12T07:51:09.596Z,2.90
2019-01-12T07:53:38.097Z,2.90
2019-01-12T07:56:06.685Z,3.00
2019-01-12T07:58:35.201Z,3.00
2019-01-12T08:01:03.843Z,3.00
2019-01-12T08:03:32.293Z,3.00
2019-01-12T08:06:00.877Z,3.00
2019-01-12T08:08:29.352Z,3.10
2019-01-12T08:10:57.877Z,3.10
2019-01-12T08:13:26.394Z,3.20
2019-01-12T08:15:54.893Z,3.20
2019-01-12T08:18:23.409Z,3.20
2019-01-12T08:20:51.857Z,3.20
2019-01-12T08:23:20.418Z,3.20
2019-01-12T08:25:49.011Z,3.30
2019-01-12T08:28:17.461Z,3.30
2019-01-12T08:30:46.005Z,3.30
2019-01-12T08:33:14.457Z,3.30
2019-01-12T08:35:42.969Z,3.40
2019-01-12T08:38:11.502Z,3.50
2019-01-12T08:40:39.957Z,3.50
2019-01-12T08:43:08.409Z,3.60
2019-01-12T08:45:36.901Z,3.60
2019-01-12T08:48:05.718Z,3.60
2019-01-12T08:50:34.305Z,3.60
2019-01-12T08:53:02.870Z,3.60
2019-01-12T08:55:31.380Z,3.60
2019-01-12T08:57:59.829Z,3.50
2019-01-12T09:00:28.376Z,3.60
2019-01-12T09:02:56.967Z,3.60
2019-01-12T09:05:25.485Z,3.50
2019-01-12T09:07:54.036Z,3.50
2019-01-12T09:10:23.233Z,3.40
2019-01-12T09:12:51.894Z,3.50
2019-01-12T09:15:20.510Z,3.50
2019-01-12T09:17:49.105Z,3.50
2019-01-12T09:20:17.693Z,3.60
2019-01-12T09:22:46.309Z,3.70
2019-01-12T09:25:15.894Z,3.70
2019-01-12T09:27:44.476Z,3.70
2019-01-12T09:30:16.097Z,3.70
2019-01-12T09:32:44.613Z,3.70
2019-01-12T09:35:14.006Z,3.70
2019-01-12T09:37:42.533Z,3.70
2019-01-12T09:40:14.129Z,3.70
2019-01-12T09:42:42.577Z,3.70
2019-01-12T09:45:13.393Z,3.70
2019-01-12T09:47:41.986Z,3.80
2019-01-12T09:50:19.109Z,3.90
2019-01-12T09:52:49.604Z,3.90
2019-01-12T09:55:18.265Z,4.10
2019-01-12T09:57:46.806Z,4.10
2019-01-12T10:00:20.840Z,4.20
2019-01-12T10:02:49.429Z,4.20
2019-01-12T10:05:17.978Z,4.10
2019-01-12T10:07:46.569Z,4.10
2019-01-12T10:10:20.173Z,4.20
2019-01-12T10:12:49.368Z,4.20
2019-01-12T10:15:17.963Z,4.20
2019-01-12T10:17:46.549Z,4.20
2019-01-12T10:20:17.476Z,4.20
2019-01-12T10:22:46.163Z,4.20
2019-01-12T10:25:15.734Z,4.20
2019-01-12T10:27:44.269Z,4.20
2019-01-12T10:30:21.386Z,4.30
2019-01-12T10:32:50.000Z,4.30
2019-01-12T10:35:18.589Z,4.40
2019-01-12T10:37:47.180Z,4.30
2019-01-12T10:40:18.376Z,4.40
2019-01-12T10:42:47.266Z,4.30
2019-01-12T10:45:18.257Z,4.30
2019-01-12T10:47:46.810Z,4.30
2019-01-12T10:50:28.037Z,4.30
2019-01-12T10:52:56.678Z,4.40
2019-01-12T10:55:25.337Z,4.40
2019-01-12T10:57:53.922Z,4.40
2019-01-12T11:00:28.145Z,4.40
2019-01-12T11:02:56.742Z,4.40
2019-01-12T11:05:25.733Z,4.40
2019-01-12T11:07:54.370Z,4.50
2019-01-12T11:10:23.125Z,4.40
2019-01-12T11:12:51.741Z,4.40
2019-01-12T11:15:21.753Z,4.40
2019-01-12T11:17:50.885Z,4.40
2019-01-12T11:20:19.521Z,4.40
2019-01-12T11:22:48.638Z,4.50
2019-01-12T11:25:17.227Z,4.50
2019-01-12T11:27:45.813Z,4.50
2019-01-12T11:30:17.251Z,4.50
2019-01-12T11:32:46.137Z,4.50
2019-01-12T11:35:14.734Z,4.50
2019-01-12T11:37:43.761Z,4.50
2019-01-12T11:40:18.011Z,4.50
2019-01-12T11:42:47.805Z,4.40
2019-01-12T11:45:17.009Z,4.50
2019-01-12T11:47:45.608Z,4.40
2019-01-12T11:50:16.187Z,4.40
2019-01-12T11:52:45.870Z,4.50
2019-01-12T11:55:16.430Z,4.40
2019-01-12T11:57:45.623Z,4.40
2019-01-12T12:00:20.053Z,4.40
2019-01-12T12:02:48.655Z,4.50
2019-01-12T12:05:17.418Z,4.50
2019-01-12T12:07:46.033Z,4.50
2019-01-12T12:10:16.428Z,4.60
2019-01-12T12:12:44.969Z,4.60
2019-01-12T12:15:19.645Z,4.70
2019-01-12T12:17:48.236Z,4.80
2019-01-12T12:20:19.130Z,4.80
2019-01-12T12:22:47.818Z,4.70
2019-01-12T12:25:16.675Z,4.70
2019-01-12T12:27:45.256Z,4.70
2019-01-12T12:30:19.421Z,4.60
2019-01-12T12:32:48.077Z,4.60
2019-01-12T12:35:16.666Z,4.60
2019-01-12T12:37:45.280Z,4.60
2019-01-12T12:40:16.971Z,4.60
2019-01-12T12:42:45.489Z,4.70
2019-01-12T12:45:28.493Z,4.60
2019-01-12T12:47:57.016Z,4.50
2019-01-12T12:50:25.777Z,4.60
2019-01-12T12:52:54.394Z,4.50
2019-01-12T12:55:22.982Z,4.50
2019-01-12T12:57:51.506Z,4.50
2019-01-12T13:00:23.086Z,4.50
2019-01-12T13:02:51.602Z,4.40
2019-01-12T13:05:20.292Z,4.40
2019-01-12T13:07:48.979Z,4.40
2019-01-12T13:10:23.375Z,4.40
2019-01-12T13:12:52.044Z,4.40
2019-01-12T13:15:20.936Z,4.40
2019-01-12T13:17:49.461Z,4.40
2019-01-12T13:20:20.545Z,4.50
2019-01-12T13:22:49.675Z,4.60
2019-01-12T13:25:18.340Z,4.50
2019-01-12T13:27:47.398Z,4.50
2019-01-12T13:30:23.825Z,4.50
2019-01-12T13:32:52.512Z,4.50
2019-01-12T13:35:21.278Z,4.50
2019-01-12T13:37:50.088Z,4.50
2019-01-12T13:40:23.942Z,4.50
2019-01-12T13:42:52.969Z,4.50
2019-01-12T13:45:22.199Z,4.40
2019-01-12T13:47:50.782Z,4.50
2019-01-12T13:50:21.874Z,4.50
2019-01-12T13:52:50.428Z,4.50
2019-01-12T13:55:19.212Z,4.50
2019-01-12T13:57:48.248Z,4.50
2019-01-12T14:00:22.625Z,4.50
2019-01-12T14:02:51.285Z,4.50
2019-01-12T14:05:19.873Z,4.50
2019-01-12T14:07:48.496Z,4.50
2019-01-12T14:10:19.187Z,4.50
2019-01-12T14:12:47.772Z,4.50
2019-01-12T14:15:18.298Z,4.50
2019-01-12T14:17:46.881Z,4.50
2019-01-12T14:20:24.115Z,4.50
2019-01-12T14:22:52.714Z,4.50
2019-01-12T14:25:21.505Z,4.50
2019-01-12T14:27:54.326Z,4.50
2019-01-12T14:30:21.045Z,4.50
2019-01-12T14:32:49.994Z,4.50
2019-01-12T14:35:19.501Z,4.50
2019-01-12T14:37:48.199Z,4.60
2019-01-12T14:40:18.490Z,4.60
2019-01-12T14:42:47.209Z,4.60
2019-01-12T14:45:19.078Z,4.60
2019-01-12T14:47:47.597Z,4.60
2019-01-12T14:50:16.217Z,4.70
2019-01-12T14:52:44.938Z,4.70
2019-01-12T14:55:15.997Z,4.60
2019-01-12T14:57:44.696Z,4.60
2019-01-12T15:00:16.206Z,4.60
2019-01-12T15:02:44.886Z,4.70
2019-01-12T15:05:15.674Z,4.70
2019-01-12T15:07:44.539Z,4.70
2019-01-12T15:10:17.592Z,4.80
2019-01-12T15:12:46.314Z,4.70
2019-01-12T15:15:16.924Z,4.70
2019-01-12T15:17:48.590Z,4.70
2019-01-12T15:20:22.309Z,4.80
2019-01-12T15:22:50.833Z,4.70
2019-01-12T15:25:20.255Z,4.70
2019-01-12T15:27:48.906Z,4.80
2019-01-12T15:30:28.350Z,4.80
2019-01-12T15:32:57.689Z,4.80
2019-01-12T15:35:31.215Z,4.80
2019-01-12T15:37:59.805Z,4.80
2019-01-12T15:40:28.354Z,4.80
2019-01-12T15:42:57.093Z,4.80
2019-01-12T15:45:27.225Z,4.80
2019-01-12T15:47:55.773Z,4.80
2019-01-12T15:50:26.149Z,4.80
2019-01-12T15:52:55.319Z,4.80
2019-01-12T15:55:24.418Z,4.80
2019-01-12T15:57:52.859Z,4.80
2019-01-12T16:00:24.023Z,4.80
2019-01-12T16:02:52.815Z,4.80
2019-01-12T16:05:21.481Z,4.80
2019-01-12T16:07:50.165Z,4.90
2019-01-12T16:10:18.866Z,4.90
2019-01-12T16:12:47.455Z,5.00
2019-01-12T16:15:21.275Z,4.90
2019-01-12T16:17:50.350Z,4.90
2019-01-12T16:20:24.278Z,4.80
2019-01-12T16:22:52.944Z,4.80
2019-01-12T16:25:21.710Z,4.90
2019-01-12T16:27:50.326Z,4.80
2019-01-12T16:30:20.606Z,4.90
2019-01-12T16:32:49.527Z,4.80
2019-01-12T16:35:19.048Z,4.80
2019-01-12T16:37:47.814Z,4.80
2019-01-12T16:40:25.133Z,4.80
2019-01-12T16:42:53.732Z,4.90
2019-01-12T16:45:22.315Z,4.90
2019-01-12T16:47:50.925Z,4.90
2019-01-12T16:50:19.449Z,4.90
2019-01-12T16:52:48.037Z,4.90
2019-01-12T16:55:18.540Z,4.80
2019-01-12T16:57:47.142Z,4.90
2019-01-12T17:00:20.724Z,4.90
2019-01-12T17:02:49.408Z,4.90
2019-01-12T17:05:17.935Z,4.80
2019-01-12T17:07:46.521Z,4.80
2019-01-12T17:10:17.666Z,4.80
2019-01-12T17:12:46.333Z,4.80
2019-01-12T17:15:16.626Z,4.80
2019-01-12T17:17:45.335Z,4.80
2019-01-12T17:20:19.424Z,4.80
2019-01-12T17:22:49.054Z,4.90
2019-01-12T17:25:17.705Z,4.80
2019-01-12T17:27:46.306Z,4.80
2019-01-12T17:30:17.235Z,4.80
2019-01-12T17:32:45.886Z,4.80
2019-01-12T17:35:14.966Z,4.80
2019-01-12T17:37:44.255Z,4.80
2019-01-12T17:40:14.587Z,4.80
2019-01-12T17:42:43.279Z,4.80
2019-01-12T17:45:17.714Z,4.70
2019-01-12T17:47:46.305Z,4.70
2019-01-12T17:50:17.275Z,4.70
2019-01-12T17:52:45.908Z,4.80
2019-01-12T17:55:16.698Z,4.80
2019-01-12T17:57:45.287Z,4.80
2019-01-12T18:00:21.169Z,4.70
2019-01-12T18:02:51.886Z,4.70
2019-01-12T18:05:20.498Z,4.60
2019-01-12T18:07:49.123Z,4.60
2019-01-12T18:10:17.661Z,4.60
2019-01-12T18:12:46.354Z,4.60
2019-01-12T18:15:16.015Z,4.60
2019-01-12T18:17:45.100Z,4.60
2019-01-12T18:20:16.135Z,4.50
2019-01-12T18:22:44.826Z,4.50
2019-01-12T18:25:13.917Z,4.40
2019-01-12T18:27:42.432Z,4.40
2019-01-12T18:30:13.989Z,4.40
2019-01-12T18:32:42.583Z,4.40
2019-01-12T18:35:11.209Z,4.40
2019-01-12T18:37:39.749Z,4.30
2019-01-12T18:40:11.513Z,4.40
2019-01-12T18:42:40.197Z,4.30
2019-01-12T18:45:11.591Z,4.30
2019-01-12T18:47:40.176Z,4.30
2019-01-12T18:50:32.557Z,4.30
2019-01-12T18:53:01.372Z,4.30
2019-01-12T18:55:29.889Z,4.20
2019-01-12T18:57:58.718Z,4.20
2019-01-12T19:00:28.677Z,4.30
2019-01-12T19:02:57.262Z,4.20
2019-01-12T19:05:26.074Z,4.20
2019-01-12T19:07:54.671Z,4.30
2019-01-12T19:10:23.259Z,4.20
2019-01-12T19:12:51.810Z,4.20
2019-01-12T19:15:25.974Z,4.20
2019-01-12T19:17:54.526Z,4.10
2019-01-12T19:20:23.250Z,4.10
2019-01-12T19:22:51.978Z,4.10
2019-01-12T19:25:20.563Z,4.10
2019-01-12T19:27:49.112Z,4.10
2019-01-12T19:30:22.334Z,4.10
2019-01-12T19:32:51.020Z,4.10
2019-01-12T19:35:19.674Z,4.10
2019-01-12T19:37:48.267Z,4.00
2019-01-12T19:40:19.385Z,4.00
2019-01-12T19:42:47.998Z,4.00
2019-01-12T19:45:16.994Z,3.90
2019-01-12T19:47:45.528Z,4.00
2019-01-12T19:50:16.743Z,3.90
2019-01-12T19:52:45.259Z,3.90
2019-01-12T19:55:14.176Z,3.90
2019-01-12T19:57:42.752Z,3.90
2019-01-12T20:00:17.063Z,3.90
2019-01-12T20:02:45.720Z,3.90
2019-01-12T20:05:14.348Z,3.90
2019-01-12T20:07:42.869Z,3.90
2019-01-12T20:10:14.336Z,3.90
2019-01-12T20:12:42.964Z,3.80
2019-01-12T20:15:14.920Z,3.80
2019-01-12T20:17:43.435Z,3.80
2019-01-12T20:20:14.651Z,3.80
2019-01-12T20:22:43.229Z,3.90
2019-01-12T20:25:14.690Z,3.80
2019-01-12T20:27:43.242Z,3.90
2019-01-12T20:30:17.441Z,3.90
2019-01-12T20:32:54.551Z,3.80
2019-01-12T20:35:35.089Z,3.80
2019-01-12T20:38:12.921Z,3.90
2019-01-12T20:40:44.445Z,3.80
2019-01-12T20:43:27.885Z,3.80
2019-01-12T20:46:02.054Z,3.80
2019-01-12T20:48:39.255Z,3.80
2019-01-12T20:51:35.171Z,3.80
2019-01-12T20:54:23.273Z,3.80
2019-01-12T20:57:20.481Z,3.70
2019-01-12T20:59:52.025Z,3.70
2019-01-12T21:02:40.017Z,3.70
2019-01-12T21:05:14.613Z,3.70
2019-01-12T21:07:49.090Z,3.70
2019-01-12T21:10:26.333Z,3.70
2019-01-12T21:13:09.821Z,3.70
2019-01-12T21:15:41.638Z,3.70
2019-01-12T21:18:10.153Z,3.70
2019-01-12T21:20:38.665Z,3.60
2019-01-12T21:23:07.373Z,3.50
2019-01-12T21:25:35.961Z,3.50
2019-01-12T21:28:04.679Z,3.50
2019-01-12T21:30:33.243Z,3.50
2019-01-12T21:33:01.825Z,3.50
2019-01-12T21:35:30.269Z,3.50
2019-01-12T21:37:58.898Z,3.50
2019-01-12T21:40:27.418Z,3.50
2019-01-12T21:42:55.881Z,3.50
2019-01-12T21:45:24.489Z,3.60
2019-01-12T21:47:53.010Z,3.60
2019-01-12T21:50:21.537Z,3.50
2019-01-12T21:52:50.225Z,3.60
2019-01-12T21:55:20.213Z,3.60
2019-01-12T21:57:48.944Z,3.60
2019-01-12T22:00:19.263Z,3.60
2019-01-12T22:02:47.805Z,3.60
2019-01-12T22:05:16.494Z,3.70
2019-01-12T22:07:45.125Z,3.70
2019-01-12T22:10:19.379Z,3.70
2019-01-12T22:12:46.454Z,3.70
2019-01-12T22:15:15.984Z,3.80
2019-01-12T22:17:44.567Z,3.80
2019-01-12T22:20:17.089Z,3.80
2019-01-12T22:22:46.009Z,3.90
2019-01-12T22:25:14.696Z,3.90
2019-01-12T22:27:43.232Z,3.90
2019-01-12T22:30:16.696Z,3.90
2019-01-12T22:32:45.358Z,3.90
2019-01-12T22:35:14.040Z,3.90
2019-01-12T22:37:42.790Z,4.00
2019-01-12T22:40:19.528Z,4.00
2019-01-12T22:42:48.146Z,4.00
2019-01-12T22:45:16.953Z,4.00
2019-01-12T22:47:45.541Z,4.00
2019-01-12T22:50:16.161Z,4.10
2019-01-12T22:52:45.156Z,4.20
2019-01-12T22:55:14.655Z,4.10
2019-01-12T22:57:43.276Z,4.10
2019-01-12T23:00:26.559Z,4.10
2019-01-12T23:02:55.270Z,4.10
2019-01-12T23:05:23.879Z,4.20
2019-01-12T23:07:52.381Z,4.20
2019-01-12T23:10:20.929Z,4.20
2019-01-12T23:12:57.285Z,4.20
2019-01-12T23:15:31.693Z,4.30
2019-01-12T23:18:00.908Z,4.20
2019-01-12T23:20:30.347Z,4.20
2019-01-12T23:22:58.889Z,4.30
2019-01-12T23:25:29.772Z,4.30
2019-01-12T23:28:02.960Z,4.30
2019-01-12T23:30:31.296Z,4.30
2019-01-12T23:32:59.817Z,4.30
2019-01-12T23:35:28.279Z,4.40
2019-01-12T23:37:56.829Z,4.30
2019-01-12T23:40:25.350Z,4.30
2019-01-12T23:42:53.937Z,4.30
2019-01-12T23:45:22.493Z,4.40
2019-01-12T23:47:51.013Z,4.40
2019-01-12T23:50:19.537Z,4.40
2019-01-12T23:52:48.011Z,4.40
2019-01-12T23:55:16.535Z,4.40
2019-01-12T23:57:45.129Z,4.40
